createdAt,value
2023-03-16T00:00:22.147Z,99.90
2023-03-16T00:01:23.916Z,99.90
2023-03-16T00:02:25.745Z,99.90
2023-03-16T00:03:30.405Z,99.90
2023-03-16T00:04:37.257Z,99.90
2023-03-16T00:05:38.987Z,99.90
2023-03-16T00:06:43.855Z,99.90
2023-03-16T00:07:45.633Z,99.90
2023-03-16T00:08:47.382Z,99.90
2023-03-16T00:09:49.155Z,99.90
2023-03-16T00:10:54.148Z,99.90
2023-03-16T00:11:55.999Z,99.90
2023-03-16T00:12:58.065Z,99.90
2023-03-16T00:13:59.876Z,99.90
2023-03-16T00:15:02.268Z,99.90
2023-03-16T00:16:04.504Z,99.90
2023-03-16T00:17:06.459Z,99.90
2023-03-16T00:18:08.272Z,99.90
2023-03-16T00:19:10.815Z,99.90
2023-03-16T00:20:12.699Z,99.90
2023-03-16T00:21:14.727Z,99.90
2023-03-16T00:22:16.859Z,99.90
2023-03-16T00:23:18.957Z,99.90
2023-03-16T00:24:20.811Z,99.90
2023-03-16T00:25:24.287Z,99.90
2023-03-16T00:26:26.019Z,99.90
2023-03-16T00:27:27.874Z,99.90
2023-03-16T00:28:34.709Z,99.90
2023-03-16T00:29:36.430Z,99.90
2023-03-16T00:30:38.128Z,99.90
2023-03-16T00:31:43.987Z,99.90
2023-03-16T00:32:45.890Z,99.90
2023-03-16T00:33:47.611Z,99.90
2023-03-16T00:34:49.450Z,99.90
2023-03-16T00:36:02.212Z,99.90
2023-03-16T00:37:04.126Z,99.90
2023-03-16T00:38:05.942Z,99.90
2023-03-16T00:39:08.411Z,99.90
2023-03-16T00:40:12.349Z,99.90
2023-03-16T00:41:15.894Z,99.90
2023-03-16T00:42:19.115Z,99.90
2023-03-16T00:43:20.904Z,99.90
2023-03-16T00:44:22.596Z,99.90
2023-03-16T00:45:25.037Z,99.90
2023-03-16T00:46:27.943Z,99.90
2023-03-16T00:47:32.767Z,99.90
2023-03-16T00:48:35.979Z,99.90
2023-03-16T00:49:37.678Z,99.90
2023-03-16T00:50:39.853Z,99.90
2023-03-16T00:51:45.966Z,99.90
2023-03-16T00:52:47.861Z,99.90
2023-03-16T00:53:50.063Z,99.90
2023-03-16T00:54:54.531Z,99.90
2023-03-16T00:55:57.220Z,99.90
2023-03-16T00:56:59.985Z,99.90
2023-03-16T00:58:05.007Z,99.90
2023-03-16T00:59:06.681Z,99.90
2023-03-16T01:00:13.025Z,99.90
2023-03-16T01:01:18.832Z,99.90
2023-03-16T01:02:23.550Z,99.90
2023-03-16T01:03:25.506Z,99.90
2023-03-16T01:04:27.240Z,99.90
2023-03-16T01:05:28.924Z,99.90
2023-03-16T01:06:31.854Z,99.90
2023-03-16T01:07:36.092Z,99.90
2023-03-16T01:08:42.019Z,99.90
2023-03-16T01:09:44.373Z,99.90
2023-03-16T01:10:46.085Z,99.90
2023-03-16T01:11:53.882Z,99.90
2023-03-16T01:12:56.185Z,99.90
2023-03-16T01:13:57.889Z,99.90
2023-03-16T01:15:00.203Z,99.90
2023-03-16T01:16:02.961Z,99.90
2023-03-16T01:17:08.688Z,99.90
2023-03-16T01:18:10.611Z,99.90
2023-03-16T01:19:13.606Z,99.90
2023-03-16T01:20:19.295Z,99.90
2023-03-16T01:21:21.751Z,99.90
2023-03-16T01:22:23.582Z,99.90
2023-03-16T01:23:25.343Z,99.90
2023-03-16T01:24:27.136Z,99.90
2023-03-16T01:25:28.962Z,99.90
2023-03-16T01:26:30.983Z,99.90
2023-03-16T01:27:33.047Z,99.90
2023-03-16T01:28:35.367Z,99.90
2023-03-16T01:29:37.712Z,99.90
2023-03-16T01:30:40.344Z,99.90
2023-03-16T01:31:42.150Z,99.90
2023-03-16T01:32:43.971Z,99.90
2023-03-16T01:33:45.670Z,99.90
2023-03-16T01:34:47.928Z,99.90
2023-03-16T01:35:57.621Z,99.90
2023-03-16T01:36:59.897Z,99.90
2023-03-16T01:38:02.554Z,99.90
2023-03-16T01:39:05.157Z,99.90
2023-03-16T01:40:08.837Z,99.90
2023-03-16T01:41:13.766Z,99.90
2023-03-16T01:42:16.045Z,99.90
2023-03-16T01:43:24.306Z,99.90
2023-03-16T01:44:35.218Z,99.90
2023-03-16T01:46:05.183Z,99.90
2023-03-16T01:47:07.154Z,99.90
2023-03-16T01:48:09.319Z,99.90
2023-03-16T01:49:26.867Z,99.90
2023-03-16T01:50:29.025Z,99.90
2023-03-16T01:51:51.598Z,99.90
2023-03-16T01:52:53.413Z,99.90
2023-03-16T01:54:01.267Z,99.90
2023-03-16T01:55:08.266Z,99.90
2023-03-16T01:56:10.814Z,99.90
2023-03-16T01:57:20.021Z,99.90
2023-03-16T01:58:22.189Z,99.90
2023-03-16T01:59:29.147Z,99.90
2023-03-16T02:00:33.909Z,99.90
2023-03-16T02:01:36.053Z,99.90
2023-03-16T02:02:43.666Z,99.90
2023-03-16T02:03:45.892Z,99.90
2023-03-16T02:05:13.916Z,99.90
2023-03-16T02:06:19.105Z,99.90
2023-03-16T02:07:24.747Z,99.90
2023-03-16T02:08:27.881Z,99.90
2023-03-16T02:09:30.371Z,99.90
2023-03-16T02:10:33.610Z,99.90
2023-03-16T02:11:35.675Z,99.90
2023-03-16T02:12:37.783Z,99.90
2023-03-16T02:13:39.660Z,99.90
2023-03-16T02:14:41.370Z,99.90
2023-03-16T02:15:43.166Z,99.90
2023-03-16T02:16:45.264Z,99.90
2023-03-16T02:17:50.432Z,99.90
2023-03-16T02:18:52.242Z,99.90
2023-03-16T02:20:08.918Z,99.90
2023-03-16T02:21:49.020Z,99.90
2023-03-16T02:22:55.567Z,99.90
2023-03-16T02:23:57.599Z,99.90
2023-03-16T02:24:59.270Z,99.90
2023-03-16T02:26:10.309Z,99.90
2023-03-16T02:27:17.042Z,99.90
2023-03-16T02:28:30.963Z,99.90
2023-03-16T02:29:55.444Z,99.90
2023-03-16T02:30:57.872Z,99.90
2023-03-16T02:32:02.599Z,99.90
2023-03-16T02:33:05.269Z,99.90
2023-03-16T02:34:08.024Z,99.90
2023-03-16T02:35:14.438Z,99.90
2023-03-16T02:36:17.357Z,99.90
2023-03-16T02:37:19.325Z,99.90
2023-03-16T02:38:21.026Z,99.90
2023-03-16T02:39:22.762Z,99.90
2023-03-16T02:40:31.178Z,99.90
2023-03-16T02:41:33.088Z,99.90
2023-03-16T02:42:34.865Z,99.90
2023-03-16T02:43:40.104Z,99.90
2023-03-16T02:44:47.296Z,99.90
2023-03-16T02:46:08.450Z,99.90
2023-03-16T02:47:19.933Z,99.90
2023-03-16T02:48:30.048Z,99.90
2023-03-16T02:49:38.476Z,99.90
2023-03-16T02:50:48.648Z,99.90
2023-03-16T02:51:50.454Z,99.90
2023-03-16T02:52:52.169Z,99.90
2023-03-16T02:53:53.828Z,99.90
2023-03-16T02:54:55.572Z,99.90
2023-03-16T02:55:57.431Z,99.90
2023-03-16T02:56:59.137Z,99.90
2023-03-16T02:58:00.804Z,99.90
2023-03-16T02:59:02.487Z,99.90
2023-03-16T03:00:12.338Z,99.90
2023-03-16T03:01:14.147Z,99.90
2023-03-16T03:02:15.929Z,99.90
2023-03-16T03:03:17.746Z,99.90
2023-03-16T03:04:20.381Z,99.90
2023-03-16T03:05:22.150Z,99.90
2023-03-16T03:06:25.201Z,99.90
2023-03-16T03:07:31.769Z,99.90
2023-03-16T03:08:33.705Z,99.90
2023-03-16T03:09:35.513Z,99.90
2023-03-16T03:10:37.177Z,99.90
2023-03-16T03:11:39.160Z,99.90
2023-03-16T03:12:41.030Z,99.90
2023-03-16T03:13:44.582Z,99.90
2023-03-16T03:14:46.331Z,99.90
2023-03-16T03:15:48.050Z,99.90
2023-03-16T03:16:49.758Z,99.90
2023-03-16T03:17:52.260Z,99.90
2023-03-16T03:18:54.054Z,99.90
2023-03-16T03:20:00.247Z,99.90
2023-03-16T03:21:02.222Z,99.90
2023-03-16T03:22:06.422Z,99.90
2023-03-16T03:23:08.539Z,99.90
2023-03-16T03:24:10.679Z,99.90
2023-03-16T03:25:14.643Z,99.90
2023-03-16T03:26:16.846Z,99.90
2023-03-16T03:27:19.510Z,99.90
2023-03-16T03:28:22.259Z,99.90
2023-03-16T03:29:23.954Z,99.90
2023-03-16T03:30:26.576Z,99.90
2023-03-16T03:31:28.495Z,99.90
2023-03-16T03:32:30.230Z,99.90
2023-03-16T03:33:33.673Z,99.90
2023-03-16T03:34:36.043Z,99.90
2023-03-16T03:35:37.936Z,99.90
2023-03-16T03:36:39.698Z,99.90
2023-03-16T03:37:42.600Z,99.90
2023-03-16T03:38:44.383Z,99.90
2023-03-16T03:39:46.156Z,99.90
2023-03-16T03:40:53.309Z,99.90
2023-03-16T03:41:55.033Z,99.90
2023-03-16T03:42:56.693Z,99.90
2023-03-16T03:43:59.604Z,99.90
2023-03-16T03:45:01.421Z,99.90
2023-03-16T03:46:04.400Z,99.90
2023-03-16T03:47:06.375Z,99.90
2023-03-16T03:48:08.093Z,99.90
2023-03-16T03:49:09.837Z,99.90
2023-03-16T03:50:13.843Z,99.90
2023-03-16T03:51:15.708Z,99.90
2023-03-16T03:52:17.421Z,99.90
2023-03-16T03:53:19.403Z,99.90
2023-03-16T03:54:21.292Z,99.90
2023-03-16T03:55:22.961Z,99.90
2023-03-16T03:56:25.269Z,99.90
2023-03-16T03:57:26.955Z,99.90
2023-03-16T03:58:28.634Z,99.90
2023-03-16T03:59:31.268Z,99.90
2023-03-16T04:00:33.292Z,99.90
2023-03-16T04:01:35.102Z,99.90
2023-03-16T04:02:37.535Z,99.90
2023-03-16T04:03:39.313Z,99.90
2023-03-16T04:04:42.592Z,99.90
2023-03-16T04:05:44.328Z,99.90
2023-03-16T04:06:46.716Z,99.90
2023-03-16T04:07:49.736Z,99.90
2023-03-16T04:08:51.493Z,99.90
2023-03-16T04:09:53.258Z,99.90
2023-03-16T04:10:55.057Z,99.90
2023-03-16T04:11:57.613Z,99.90
2023-03-16T04:13:00.608Z,99.90
2023-03-16T04:14:02.342Z,99.90
2023-03-16T04:15:04.827Z,99.90
2023-03-16T04:16:06.708Z,99.90
2023-03-16T04:17:08.603Z,99.90
2023-03-16T04:18:10.350Z,99.90
2023-03-16T04:19:12.057Z,99.90
2023-03-16T04:20:15.597Z,99.90
2023-03-16T04:21:18.102Z,99.90
2023-03-16T04:22:19.888Z,99.90
2023-03-16T04:23:22.080Z,99.90
2023-03-16T04:24:24.712Z,99.90
2023-03-16T04:25:27.529Z,99.90
2023-03-16T04:26:29.559Z,99.90
2023-03-16T04:27:36.516Z,99.90
2023-03-16T04:28:38.458Z,99.90
2023-03-16T04:29:40.146Z,99.90
2023-03-16T04:30:43.006Z,99.90
2023-03-16T04:31:45.602Z,99.90
2023-03-16T04:32:47.370Z,99.90
2023-03-16T04:33:49.353Z,99.90
2023-03-16T04:34:55.754Z,99.90
2023-03-16T04:35:57.833Z,99.90
2023-03-16T04:36:59.527Z,99.90
2023-03-16T04:38:02.305Z,99.90
2023-03-16T04:39:04.752Z,99.90
2023-03-16T04:40:11.848Z,99.90
2023-03-16T04:41:13.655Z,99.90
2023-03-16T04:42:15.375Z,99.90
2023-03-16T04:43:17.301Z,99.90
2023-03-16T04:44:19.112Z,99.90
2023-03-16T04:45:20.792Z,99.90
2023-03-16T04:46:22.596Z,99.90
2023-03-16T04:47:24.366Z,99.90
2023-03-16T04:48:26.090Z,99.90
2023-03-16T04:49:27.818Z,99.90
2023-03-16T04:50:29.816Z,99.90
2023-03-16T04:51:31.840Z,99.90
2023-03-16T04:52:33.738Z,99.90
2023-03-16T04:53:35.441Z,99.90
2023-03-16T04:54:37.190Z,99.90
2023-03-16T04:55:38.909Z,99.90
2023-03-16T04:56:41.657Z,99.90
2023-03-16T04:57:43.449Z,99.90
2023-03-16T04:58:49.541Z,99.90
2023-03-16T04:59:51.513Z,99.90
2023-03-16T05:00:53.998Z,99.90
2023-03-16T05:01:56.017Z,99.90
2023-03-16T05:02:57.962Z,99.90
2023-03-16T05:03:59.918Z,99.90
2023-03-16T05:05:01.660Z,99.90
2023-03-16T05:06:03.596Z,99.90
2023-03-16T05:07:05.459Z,99.90
2023-03-16T05:08:07.581Z,99.90
2023-03-16T05:09:09.395Z,99.90
2023-03-16T05:10:13.113Z,99.90
2023-03-16T05:11:15.209Z,99.90
2023-03-16T05:12:16.927Z,99.90
2023-03-16T05:13:18.655Z,99.90
2023-03-16T05:14:20.618Z,99.90
2023-03-16T05:15:22.367Z,99.90
2023-03-16T05:16:24.605Z,99.90
2023-03-16T05:17:26.362Z,99.90
2023-03-16T05:18:28.291Z,99.90
2023-03-16T05:19:30.579Z,99.90
2023-03-16T05:20:32.344Z,99.90
2023-03-16T05:21:36.245Z,99.90
2023-03-16T05:22:45.422Z,99.90
2023-03-16T05:23:47.159Z,99.90
2023-03-16T05:24:48.992Z,99.90
2023-03-16T05:25:51.286Z,99.90
2023-03-16T05:26:53.064Z,99.90
2023-03-16T05:27:54.820Z,99.90
2023-03-16T05:28:58.300Z,99.90
2023-03-16T05:30:01.223Z,99.90
2023-03-16T05:31:03.908Z,99.90
2023-03-16T05:32:06.530Z,99.90
2023-03-16T05:33:09.188Z,99.90
2023-03-16T05:34:11.160Z,99.90
2023-03-16T05:35:13.796Z,99.90
2023-03-16T05:36:15.611Z,99.90
2023-03-16T05:37:17.335Z,99.90
2023-03-16T05:38:19.048Z,99.90
2023-03-16T05:39:20.818Z,99.90
2023-03-16T05:40:23.262Z,99.90
2023-03-16T05:41:25.084Z,99.90
2023-03-16T05:42:29.446Z,99.90
2023-03-16T05:43:31.506Z,99.90
2023-03-16T05:44:33.535Z,99.90
2023-03-16T05:45:35.364Z,99.90
2023-03-16T05:46:37.376Z,99.90
2023-03-16T05:47:39.282Z,99.90
2023-03-16T05:48:40.966Z,99.90
2023-03-16T05:49:42.692Z,99.90
2023-03-16T05:50:44.418Z,99.90
2023-03-16T05:51:46.138Z,99.90
2023-03-16T05:52:48.471Z,99.90
2023-03-16T05:53:50.143Z,99.90
2023-03-16T05:54:52.280Z,99.90
2023-03-16T05:55:54.099Z,99.90
2023-03-16T05:56:55.869Z,99.90
2023-03-16T05:57:58.533Z,99.90
2023-03-16T05:59:00.644Z,99.90
2023-03-16T06:00:14.481Z,99.90
2023-03-16T06:01:16.201Z,99.90
2023-03-16T06:02:17.894Z,99.90
2023-03-16T06:03:19.674Z,99.90
2023-03-16T06:04:21.836Z,99.90
2023-03-16T06:05:25.077Z,99.90
2023-03-16T06:06:26.788Z,99.90
2023-03-16T06:07:29.248Z,99.90
2023-03-16T06:08:31.001Z,99.90
2023-03-16T06:09:32.815Z,99.90
2023-03-16T06:10:35.105Z,99.90
2023-03-16T06:11:36.772Z,99.90
2023-03-16T06:12:38.737Z,99.90
2023-03-16T06:13:41.399Z,99.90
2023-03-16T06:14:43.211Z,99.90
2023-03-16T06:15:44.942Z,99.90
2023-03-16T06:16:46.669Z,99.90
2023-03-16T06:17:48.829Z,99.90
2023-03-16T06:18:51.206Z,99.90
2023-03-16T06:19:53.048Z,99.90
2023-03-16T06:20:54.825Z,99.90
2023-03-16T06:21:56.607Z,99.90
2023-03-16T06:22:58.378Z,99.90
2023-03-16T06:24:00.228Z,99.90
2023-03-16T06:25:02.015Z,99.90
2023-03-16T06:26:03.809Z,99.90
2023-03-16T06:27:05.629Z,99.90
2023-03-16T06:28:08.065Z,99.90
2023-03-16T06:29:10.077Z,99.90
2023-03-16T06:30:13.636Z,99.90
2023-03-16T06:31:15.483Z,99.90
2023-03-16T06:32:17.266Z,99.90
2023-03-16T06:33:19.112Z,99.90
2023-03-16T06:34:20.970Z,99.90
2023-03-16T06:35:23.171Z,99.90
2023-03-16T06:36:24.939Z,99.90
2023-03-16T06:37:26.740Z,99.90
2023-03-16T06:38:28.485Z,99.90
2023-03-16T06:39:30.854Z,99.90
2023-03-16T06:40:33.133Z,99.90
2023-03-16T06:41:35.806Z,99.90
2023-03-16T06:42:37.513Z,99.90
2023-03-16T06:43:39.336Z,99.90
2023-03-16T06:44:41.504Z,99.90
2023-03-16T06:45:43.771Z,99.90
2023-03-16T06:46:45.459Z,99.90
2023-03-16T06:47:47.210Z,99.90
2023-03-16T06:48:49.111Z,99.90
2023-03-16T06:49:51.860Z,99.90
2023-03-16T06:50:53.665Z,99.90
2023-03-16T06:51:55.432Z,99.90
2023-03-16T06:52:57.222Z,99.90
2023-03-16T06:53:59.018Z,99.90
2023-03-16T06:55:01.120Z,99.90
2023-03-16T06:56:02.852Z,99.90
2023-03-16T06:57:04.613Z,99.90
2023-03-16T06:58:06.365Z,99.90
2023-03-16T06:59:08.226Z,99.90
2023-03-16T07:00:14.061Z,99.90
2023-03-16T07:01:15.988Z,99.90
2023-03-16T07:02:19.834Z,99.90
2023-03-16T07:03:21.760Z,99.90
2023-03-16T07:04:23.633Z,99.90
2023-03-16T07:05:25.469Z,99.90
2023-03-16T07:06:27.157Z,99.90
2023-03-16T07:07:28.849Z,99.90
2023-03-16T07:08:30.609Z,99.90
2023-03-16T07:09:32.417Z,99.90
2023-03-16T07:10:34.666Z,99.90
2023-03-16T07:11:36.395Z,99.90
2023-03-16T07:12:38.238Z,99.90
2023-03-16T07:13:40.020Z,99.90
2023-03-16T07:14:42.115Z,99.90
2023-03-16T07:15:44.690Z,99.90
2023-03-16T07:16:46.534Z,99.90
2023-03-16T07:17:48.289Z,99.90
2023-03-16T07:18:50.100Z,99.90
2023-03-16T07:19:51.963Z,99.90
2023-03-16T07:20:54.556Z,99.90
2023-03-16T07:21:57.136Z,99.90
2023-03-16T07:22:59.316Z,99.90
2023-03-16T07:24:01.295Z,99.90
2023-03-16T07:25:03.827Z,99.90
2023-03-16T07:26:08.089Z,99.90
2023-03-16T07:27:11.477Z,99.90
2023-03-16T07:28:14.125Z,99.90
2023-03-16T07:29:17.131Z,99.90
2023-03-16T07:30:19.011Z,99.90
2023-03-16T07:31:20.814Z,99.90
2023-03-16T07:32:23.090Z,99.90
2023-03-16T07:33:24.895Z,99.90
2023-03-16T07:34:26.677Z,99.90
2023-03-16T07:35:28.527Z,99.90
2023-03-16T07:36:30.420Z,99.90
2023-03-16T07:37:32.509Z,99.90
2023-03-16T07:38:34.297Z,99.90
2023-03-16T07:39:36.571Z,99.90
2023-03-16T07:40:40.361Z,99.90
2023-03-16T07:41:42.201Z,99.90
2023-03-16T07:42:44.276Z,99.90
2023-03-16T07:43:45.971Z,99.90
2023-03-16T07:44:48.407Z,99.90
2023-03-16T07:45:52.541Z,99.90
2023-03-16T07:46:54.667Z,99.90
2023-03-16T07:47:56.382Z,99.90
2023-03-16T07:48:58.521Z,99.90
2023-03-16T07:50:01.226Z,99.90
2023-03-16T07:51:02.909Z,99.90
2023-03-16T07:52:04.890Z,99.90
2023-03-16T07:53:06.614Z,99.90
2023-03-16T07:54:08.456Z,99.90
2023-03-16T07:55:10.407Z,99.90
2023-03-16T07:56:12.490Z,99.90
2023-03-16T07:57:14.408Z,99.90
2023-03-16T07:58:16.175Z,99.90
2023-03-16T07:59:20.419Z,99.90
2023-03-16T08:00:24.201Z,99.90
2023-03-16T08:01:26.033Z,99.90
2023-03-16T08:02:27.810Z,99.90
2023-03-16T08:03:31.871Z,99.90
2023-03-16T08:04:34.164Z,99.90
2023-03-16T08:05:35.922Z,99.90
2023-03-16T08:06:37.613Z,99.90
2023-03-16T08:07:39.389Z,99.90
2023-03-16T08:08:41.197Z,99.90
2023-03-16T08:09:43.457Z,99.90
2023-03-16T08:10:48.125Z,99.90
2023-03-16T08:11:49.801Z,99.90
2023-03-16T08:12:51.918Z,99.90
2023-03-16T08:13:56.709Z,99.90
2023-03-16T08:14:58.400Z,99.90
2023-03-16T08:16:02.032Z,99.90
2023-03-16T08:17:05.774Z,99.90
2023-03-16T08:18:07.801Z,99.90
2023-03-16T08:19:09.561Z,99.90
2023-03-16T08:20:15.639Z,99.90
2023-03-16T08:21:17.759Z,99.90
2023-03-16T08:22:19.465Z,99.90
2023-03-16T08:23:22.386Z,99.90
2023-03-16T08:24:24.141Z,99.90
2023-03-16T08:25:26.732Z,99.90
2023-03-16T08:26:28.527Z,99.90
2023-03-16T08:27:30.974Z,99.90
2023-03-16T08:28:32.704Z,99.90
2023-03-16T08:29:34.614Z,99.90
2023-03-16T08:30:36.445Z,99.90
2023-03-16T08:31:38.269Z,99.90
2023-03-16T08:32:41.021Z,99.90
2023-03-16T08:33:43.721Z,99.90
2023-03-16T08:34:46.081Z,99.90
2023-03-16T08:35:48.482Z,99.90
2023-03-16T08:36:50.277Z,99.90
2023-03-16T08:37:52.041Z,99.90
2023-03-16T08:39:05.941Z,99.90
2023-03-16T08:40:19.486Z,99.90
2023-03-16T08:41:21.930Z,99.90
2023-03-16T08:42:23.880Z,99.90
2023-03-16T08:43:26.741Z,99.90
2023-03-16T08:44:28.532Z,99.90
2023-03-16T08:45:30.221Z,99.90
2023-03-16T08:46:32.401Z,99.90
2023-03-16T08:47:34.192Z,99.90
2023-03-16T08:48:36.351Z,99.90
2023-03-16T08:49:38.340Z,99.90
2023-03-16T08:50:43.220Z,99.90
2023-03-16T08:51:45.472Z,99.90
2023-03-16T08:52:49.059Z,99.90
2023-03-16T08:53:51.642Z,99.90
2023-03-16T08:55:02.838Z,99.90
2023-03-16T08:56:14.223Z,99.90
2023-03-16T08:57:16.282Z,99.90
2023-03-16T08:58:17.991Z,99.90
2023-03-16T08:59:28.961Z,99.90
2023-03-16T09:00:31.635Z,99.90
2023-03-16T09:01:34.607Z,99.90
2023-03-16T09:02:38.633Z,99.90
2023-03-16T09:03:40.717Z,99.90
2023-03-16T09:04:42.450Z,99.90
2023-03-16T09:05:44.252Z,99.90
2023-03-16T09:06:50.894Z,99.90
2023-03-16T09:08:01.605Z,99.90
2023-03-16T09:09:04.521Z,99.90
2023-03-16T09:10:13.446Z,99.90
2023-03-16T09:11:17.745Z,99.90
2023-03-16T09:12:20.660Z,99.90
2023-03-16T09:13:22.409Z,99.90
2023-03-16T09:14:24.610Z,99.90
2023-03-16T09:15:26.879Z,99.90
2023-03-16T09:16:30.389Z,99.90
2023-03-16T09:17:32.346Z,99.90
2023-03-16T09:18:35.279Z,99.90
2023-03-16T09:19:50.666Z,99.90
2023-03-16T09:21:00.049Z,99.90
2023-03-16T09:22:01.955Z,99.90
2023-03-16T09:23:04.294Z,99.90
2023-03-16T09:24:08.517Z,99.90
2023-03-16T09:25:11.235Z,99.90
2023-03-16T09:26:14.810Z,99.90
2023-03-16T09:27:17.125Z,99.90
2023-03-16T09:28:21.947Z,99.90
2023-03-16T09:29:24.522Z,99.90
2023-03-16T09:30:26.543Z,99.90
2023-03-16T09:31:28.409Z,99.90
2023-03-16T09:32:30.648Z,99.90
2023-03-16T09:33:33.784Z,99.90
2023-03-16T09:34:35.865Z,99.90
2023-03-16T09:35:38.097Z,99.90
2023-03-16T09:36:40.866Z,99.90
2023-03-16T09:38:04.282Z,99.90
2023-03-16T09:39:05.095Z,99.90
2023-03-16T09:40:11.992Z,99.90
2023-03-16T09:41:32.705Z,99.90
2023-03-16T09:42:38.431Z,99.90
2023-03-16T09:44:13.731Z,99.90
2023-03-16T09:45:53.763Z,99.90
2023-03-16T09:46:58.568Z,99.90
2023-03-16T09:48:03.873Z,99.90
2023-03-16T09:49:05.683Z,99.90
2023-03-16T09:50:16.670Z,99.90
2023-03-16T09:51:23.873Z,99.90
2023-03-16T09:52:55.649Z,99.90
2023-03-16T09:54:01.640Z,99.90
2023-03-16T09:55:32.027Z,99.90
2023-03-16T09:56:42.258Z,99.90
2023-03-16T09:57:45.733Z,99.90
2023-03-16T09:58:47.505Z,99.90
2023-03-16T09:59:49.389Z,99.90
2023-03-16T10:01:11.276Z,99.90
2023-03-16T10:02:25.452Z,99.90
2023-03-16T10:03:50.908Z,99.90
2023-03-16T10:05:16.003Z,99.90
2023-03-16T10:06:19.263Z,99.90
2023-03-16T10:07:36.081Z,99.90
2023-03-16T10:08:40.959Z,99.90
2023-03-16T10:09:57.471Z,99.90
2023-03-16T10:11:15.658Z,99.90
2023-03-16T10:12:17.875Z,99.90
2023-03-16T10:13:36.719Z,99.90
2023-03-16T10:14:48.124Z,99.90
2023-03-16T10:15:53.514Z,99.90
2023-03-16T10:16:59.185Z,99.90
2023-03-16T10:18:12.371Z,99.90
2023-03-16T10:19:47.554Z,99.90
2023-03-16T10:20:50.883Z,99.90
2023-03-16T10:21:56.151Z,99.90
2023-03-16T10:22:59.954Z,99.20
2023-03-16T10:24:04.572Z,98.40
2023-03-16T10:25:40.198Z,97.00
2023-03-16T10:26:47.453Z,96.50
2023-03-16T10:27:49.940Z,99.90
2023-03-16T10:28:53.062Z,99.90
2023-03-16T10:29:55.109Z,95.80
2023-03-16T10:30:59.958Z,96.60
2023-03-16T10:32:16.743Z,96.10
2023-03-16T10:33:26.759Z,95.40
2023-03-16T10:34:29.253Z,93.40
2023-03-16T10:35:56.488Z,92.80
2023-03-16T10:36:58.351Z,93.20
2023-03-16T10:38:00.196Z,93.00
2023-03-16T10:39:07.779Z,92.60
2023-03-16T10:40:12.812Z,93.50
2023-03-16T10:41:32.658Z,94.30
2023-03-16T10:42:37.087Z,93.70
2023-03-16T10:43:42.031Z,91.60
2023-03-16T10:44:45.002Z,90.70
2023-03-16T10:45:47.183Z,88.80
2023-03-16T10:47:17.347Z,90.40
2023-03-16T10:48:22.160Z,95.10
2023-03-16T10:49:27.858Z,91.50
2023-03-16T10:50:29.768Z,90.90
2023-03-16T10:51:34.922Z,88.20
2023-03-16T10:52:43.176Z,86.80
2023-03-16T10:53:45.209Z,90.60
2023-03-16T10:55:02.675Z,88.90
2023-03-16T10:56:25.239Z,89.40
2023-03-16T10:57:29.789Z,90.70
2023-03-16T10:58:33.816Z,83.90
2023-03-16T10:59:37.031Z,84.00
2023-03-16T11:00:43.517Z,83.70
2023-03-16T11:01:49.890Z,84.70
2023-03-16T11:02:54.366Z,83.80
2023-03-16T11:03:58.048Z,86.70
2023-03-16T11:05:00.974Z,84.30
2023-03-16T11:06:05.722Z,83.70
2023-03-16T11:07:11.482Z,80.30
2023-03-16T11:08:22.302Z,80.00
2023-03-16T11:09:33.126Z,82.60
2023-03-16T11:10:46.154Z,80.70
2023-03-16T11:11:55.248Z,83.20
2023-03-16T11:13:02.930Z,84.50
2023-03-16T11:14:13.737Z,84.50
2023-03-16T11:15:32.596Z,82.50
2023-03-16T11:16:47.872Z,80.40
2023-03-16T11:17:53.526Z,80.90
2023-03-16T11:19:04.002Z,78.80
2023-03-16T11:20:23.404Z,79.90
2023-03-16T11:21:38.793Z,78.00
2023-03-16T11:22:45.541Z,80.00
2023-03-16T11:23:55.154Z,79.20
2023-03-16T11:25:02.882Z,78.00
2023-03-16T11:26:13.930Z,79.60
2023-03-16T11:27:46.116Z,78.00
2023-03-16T11:28:59.208Z,78.20
2023-03-16T11:30:20.002Z,77.80
2023-03-16T11:32:00.744Z,76.10
2023-03-16T11:33:02.554Z,75.50
2023-03-16T11:34:08.379Z,76.40
2023-03-16T11:35:22.511Z,77.20
2023-03-16T11:36:47.617Z,76.20
2023-03-16T11:37:58.503Z,78.30
2023-03-16T11:39:10.846Z,75.10
2023-03-16T11:40:29.200Z,76.10
2023-03-16T11:41:39.292Z,76.30
2023-03-16T11:43:18.590Z,75.60
2023-03-16T11:44:59.447Z,72.40
2023-03-16T11:46:40.112Z,72.50
2023-03-16T11:47:50.890Z,76.90
2023-03-16T11:49:09.156Z,79.30
2023-03-16T11:50:11.369Z,83.50
2023-03-16T11:51:47.814Z,76.80
2023-03-16T11:53:06.274Z,70.30
2023-03-16T11:54:26.751Z,70.90
2023-03-16T11:55:46.684Z,68.40
2023-03-16T11:57:21.064Z,72.80
2023-03-16T11:59:00.771Z,68.30
2023-03-16T12:00:25.821Z,67.60
2023-03-16T12:02:05.158Z,69.50
2023-03-16T12:03:12.727Z,66.50
2023-03-16T12:04:32.482Z,65.80
2023-03-16T12:06:22.493Z,67.90
2023-03-16T12:07:37.769Z,66.80
2023-03-16T12:09:26.658Z,66.30
2023-03-16T12:10:43.664Z,68.70
2023-03-16T12:12:17.218Z,67.90
2023-03-16T12:13:47.934Z,65.20
2023-03-16T12:15:14.522Z,67.30
2023-03-16T12:16:23.892Z,67.70
2023-03-16T12:17:30.516Z,64.00
2023-03-16T12:19:01.317Z,60.00
2023-03-16T12:20:14.014Z,61.70
2023-03-16T12:21:21.848Z,61.60
2023-03-16T12:22:29.914Z,60.80
2023-03-16T12:23:52.271Z,59.90
2023-03-16T12:24:54.365Z,60.70
2023-03-16T12:26:00.108Z,62.30
2023-03-16T12:27:02.620Z,62.10
2023-03-16T12:28:23.768Z,59.30
2023-03-16T12:29:47.056Z,59.30
2023-03-16T12:31:05.178Z,57.80
2023-03-16T12:32:13.097Z,59.40
2023-03-16T12:33:32.077Z,57.80
2023-03-16T12:34:41.085Z,57.20
2023-03-16T12:35:58.251Z,58.80
2023-03-16T12:37:09.624Z,58.50
2023-03-16T12:38:11.334Z,57.50
2023-03-16T12:39:33.768Z,58.60
2023-03-16T12:41:00.122Z,57.40
2023-03-16T12:42:24.783Z,56.80
2023-03-16T12:43:47.672Z,57.00
2023-03-16T12:44:52.988Z,54.60
2023-03-16T12:46:11.716Z,56.00
2023-03-16T12:47:19.769Z,55.80
2023-03-16T12:48:28.212Z,57.20
2023-03-16T12:49:33.576Z,58.00
2023-03-16T12:50:35.972Z,55.70
2023-03-16T12:51:42.930Z,55.00
2023-03-16T12:52:51.807Z,57.20
2023-03-16T12:53:55.483Z,56.00
2023-03-16T12:55:13.331Z,56.50
2023-03-16T12:56:26.663Z,55.40
2023-03-16T12:57:30.511Z,56.50
2023-03-16T12:58:32.916Z,56.20
2023-03-16T12:59:43.119Z,55.00
2023-03-16T13:00:57.002Z,56.30
2023-03-16T13:01:59.670Z,56.90
2023-03-16T13:03:03.629Z,56.00
2023-03-16T13:04:16.741Z,56.40
2023-03-16T13:05:38.326Z,55.40
2023-03-16T13:06:44.593Z,56.00
2023-03-16T13:07:52.391Z,55.40
2023-03-16T13:08:59.785Z,55.80
2023-03-16T13:10:08.125Z,55.90
2023-03-16T13:11:16.410Z,56.30
2023-03-16T13:12:41.746Z,56.50
2023-03-16T13:14:02.090Z,56.10
2023-03-16T13:15:24.276Z,55.50
2023-03-16T13:16:32.357Z,52.70
2023-03-16T13:17:34.347Z,54.10
2023-03-16T13:18:45.030Z,53.30
2023-03-16T13:20:08.934Z,55.20
2023-03-16T13:21:41.584Z,53.00
2023-03-16T13:22:53.195Z,53.60
2023-03-16T13:24:35.477Z,53.00
2023-03-16T13:25:45.602Z,53.50
2023-03-16T13:27:15.670Z,55.10
2023-03-16T13:28:17.786Z,54.30
2023-03-16T13:29:28.458Z,53.00
2023-03-16T13:30:33.124Z,52.90
2023-03-16T13:31:42.160Z,52.70
2023-03-16T13:32:44.960Z,53.00
2023-03-16T13:33:48.164Z,53.20
2023-03-16T13:34:53.299Z,53.70
2023-03-16T13:35:57.536Z,53.90
2023-03-16T13:37:01.743Z,54.30
2023-03-16T13:38:05.791Z,54.20
2023-03-16T13:39:19.227Z,53.90
2023-03-16T13:40:29.627Z,53.20
2023-03-16T13:41:31.797Z,53.90
2023-03-16T13:42:33.984Z,53.10
2023-03-16T13:43:41.666Z,53.10
2023-03-16T13:44:44.596Z,53.80
2023-03-16T13:45:47.070Z,53.80
2023-03-16T13:46:50.849Z,53.70
2023-03-16T13:47:53.379Z,53.00
2023-03-16T13:48:58.589Z,54.40
2023-03-16T13:50:00.535Z,55.00
2023-03-16T13:51:03.185Z,54.10
2023-03-16T13:52:06.051Z,54.70
2023-03-16T13:53:29.596Z,52.80
2023-03-16T13:54:31.720Z,52.90
2023-03-16T13:55:36.963Z,53.90
2023-03-16T13:56:40.210Z,54.40
2023-03-16T13:57:44.072Z,53.90
2023-03-16T13:58:49.478Z,53.20
2023-03-16T13:59:58.962Z,53.50
2023-03-16T14:01:03.452Z,53.30
2023-03-16T14:02:18.426Z,53.90
2023-03-16T14:03:22.447Z,54.00
2023-03-16T14:04:29.930Z,54.30
2023-03-16T14:05:35.193Z,53.50
2023-03-16T14:06:37.852Z,53.20
2023-03-16T14:07:39.571Z,54.20
2023-03-16T14:08:42.514Z,53.30